sensor_id;sensor_type;location;lat;lon;timestamp;temperature;humidity
53254;DHT22;39148;53.332;6.922;2023-07-02T00:00:28;19.60;80.20
53254;DHT22;39148;53.332;6.922;2023-07-02T00:02:53;19.70;80.30
53254;DHT22;39148;53.332;6.922;2023-07-02T00:05:19;19.70;80.40
53254;DHT22;39148;53.332;6.922;2023-07-02T00:07:45;19.60;80.40
53254;DHT22;39148;53.332;6.922;2023-07-02T00:10:10;19.60;80.30
53254;DHT22;39148;53.332;6.922;2023-07-02T00:12:36;19.70;80.50
53254;DHT22;39148;53.332;6.922;2023-07-02T00:15:02;19.60;80.30
53254;DHT22;39148;53.332;6.922;2023-07-02T00:17:28;19.60;80.10
53254;DHT22;39148;53.332;6.922;2023-07-02T00:19:54;19.50;80.30
53254;DHT22;39148;53.332;6.922;2023-07-02T00:22:20;19.50;82.00
53254;DHT22;39148;53.332;6.922;2023-07-02T00:24:46;19.50;80.20
53254;DHT22;39148;53.332;6.922;2023-07-02T00:27:12;19.50;80.20
53254;DHT22;39148;53.332;6.922;2023-07-02T00:29:38;19.50;80.20
53254;DHT22;39148;53.332;6.922;2023-07-02T00:32:04;19.50;80.30
53254;DHT22;39148;53.332;6.922;2023-07-02T00:34:30;19.50;79.80
53254;DHT22;39148;53.332;6.922;2023-07-02T00:36:55;19.50;80.20
53254;DHT22;39148;53.332;6.922;2023-07-02T00:39:21;19.40;80.20
53254;DHT22;39148;53.332;6.922;2023-07-02T00:41:46;19.40;80.20
53254;DHT22;39148;53.332;6.922;2023-07-02T00:44:13;19.30;80.20
53254;DHT22;39148;53.332;6.922;2023-07-02T00:46:39;19.50;80.40
53254;DHT22;39148;53.332;6.922;2023-07-02T00:49:05;19.50;80.30
53254;DHT22;39148;53.332;6.922;2023-07-02T00:51:31;19.40;80.30
53254;DHT22;39148;53.332;6.922;2023-07-02T00:53:58;19.50;80.30
53254;DHT22;39148;53.332;6.922;2023-07-02T00:56:25;19.40;80.30
53254;DHT22;39148;53.332;6.922;2023-07-02T00:58:53;19.30;80.40
53254;DHT22;39148;53.332;6.922;2023-07-02T01:01:24;19.30;80.30
53254;DHT22;39148;53.332;6.922;2023-07-02T01:04:02;19.40;80.50
53254;DHT22;39148;53.332;6.922;2023-07-02T01:06:36;19.40;80.60
53254;DHT22;39148;53.332;6.922;2023-07-02T01:09:06;19.40;80.60
53254;DHT22;39148;53.332;6.922;2023-07-02T01:16:34;19.40;80.40
53254;DHT22;39148;53.332;6.922;2023-07-02T01:19:02;19.30;80.40
53254;DHT22;39148;53.332;6.922;2023-07-02T01:21:31;19.30;80.50
53254;DHT22;39148;53.332;6.922;2023-07-02T01:23:59;19.20;80.40
53254;DHT22;39148;53.332;6.922;2023-07-02T01:26:29;19.30;82.10
53254;DHT22;39148;53.332;6.922;2023-07-02T01:28:55;19.10;82.00
53254;DHT22;39148;53.332;6.922;2023-07-02T01:31:21;19.20;80.20
53254;DHT22;39148;53.332;6.922;2023-07-02T01:33:51;19.20;82.00
53254;DHT22;39148;53.332;6.922;2023-07-02T01:36:16;19.20;80.40
53254;DHT22;39148;53.332;6.922;2023-07-02T01:38:42;19.20;80.20
53254;DHT22;39148;53.332;6.922;2023-07-02T01:41:08;19.20;82.20
53254;DHT22;39148;53.332;6.922;2023-07-02T01:43:33;19.00;80.20
53254;DHT22;39148;53.332;6.922;2023-07-02T01:45:59;19.20;80.20
53254;DHT22;39148;53.332;6.922;2023-07-02T01:48:27;19.10;80.30
53254;DHT22;39148;53.332;6.922;2023-07-02T01:50:52;19.10;80.20
53254;DHT22;39148;53.332;6.922;2023-07-02T01:53:18;19.10;80.30
53254;DHT22;39148;53.332;6.922;2023-07-02T01:55:44;19.10;82.00
53254;DHT22;39148;53.332;6.922;2023-07-02T01:58:10;19.10;82.00
53254;DHT22;39148;53.332;6.922;2023-07-02T02:00:35;19.10;80.30
53254;DHT22;39148;53.332;6.922;2023-07-02T02:03:01;19.10;82.10
53254;DHT22;39148;53.332;6.922;2023-07-02T02:05:27;19.00;80.30
53254;DHT22;39148;53.332;6.922;2023-07-02T02:07:53;18.90;80.30
53254;DHT22;39148;53.332;6.922;2023-07-02T02:10:19;19.00;80.30
53254;DHT22;39148;53.332;6.922;2023-07-02T02:12:44;18.90;80.20
53254;DHT22;39148;53.332;6.922;2023-07-02T02:15:10;19.00;82.10
53254;DHT22;39148;53.332;6.922;2023-07-02T02:17:39;19.00;80.40
53254;DHT22;39148;53.332;6.922;2023-07-02T02:20:05;18.80;82.10
53254;DHT22;39148;53.332;6.922;2023-07-02T02:22:32;18.80;79.80
53254;DHT22;39148;53.332;6.922;2023-07-02T02:24:57;18.80;82.20
53254;DHT22;39148;53.332;6.922;2023-07-02T02:27:23;18.90;80.30
53254;DHT22;39148;53.332;6.922;2023-07-02T02:29:49;18.90;80.40
53254;DHT22;39148;53.332;6.922;2023-07-02T02:32:14;18.80;82.10
53254;DHT22;39148;53.332;6.922;2023-07-02T02:34:42;18.90;80.40
53254;DHT22;39148;53.332;6.922;2023-07-02T02:37:08;18.90;80.40
53254;DHT22;39148;53.332;6.922;2023-07-02T02:39:34;18.80;80.50
53254;DHT22;39148;53.332;6.922;2023-07-02T02:42:00;18.80;80.40
53254;DHT22;39148;53.332;6.922;2023-07-02T02:44:25;18.70;82.10
53254;DHT22;39148;53.332;6.922;2023-07-02T02:46:51;18.80;80.40
53254;DHT22;39148;53.332;6.922;2023-07-02T02:49:17;18.80;80.40
53254;DHT22;39148;53.332;6.922;2023-07-02T02:51:42;18.70;80.40
53254;DHT22;39148;53.332;6.922;2023-07-02T02:54:08;18.70;82.50
53254;DHT22;39148;53.332;6.922;2023-07-02T02:56:34;18.70;80.40
53254;DHT22;39148;53.332;6.922;2023-07-02T02:59:00;18.70;82.20
53254;DHT22;39148;53.332;6.922;2023-07-02T03:01:25;18.80;82.50
53254;DHT22;39148;53.332;6.922;2023-07-02T03:03:58;18.70;82.40
53254;DHT22;39148;53.332;6.922;2023-07-02T03:06:24;18.60;82.30
53254;DHT22;39148;53.332;6.922;2023-07-02T03:08:50;18.60;80.50
53254;DHT22;39148;53.332;6.922;2023-07-02T03:11:15;18.70;80.50
53254;DHT22;39148;53.332;6.922;2023-07-02T03:13:41;18.70;80.60
53254;DHT22;39148;53.332;6.922;2023-07-02T03:16:06;18.70;80.50
53254;DHT22;39148;53.332;6.922;2023-07-02T03:18:32;18.70;82.40
53254;DHT22;39148;53.332;6.922;2023-07-02T03:20:59;18.60;82.60
53254;DHT22;39148;53.332;6.922;2023-07-02T03:23:25;18.50;80.60
53254;DHT22;39148;53.332;6.922;2023-07-02T03:25:50;18.50;82.40
53254;DHT22;39148;53.332;6.922;2023-07-02T03:28:16;18.60;82.50
53254;DHT22;39148;53.332;6.922;2023-07-02T03:30:42;18.50;82.40
53254;DHT22;39148;53.332;6.922;2023-07-02T03:33:09;18.60;82.50
53254;DHT22;39148;53.332;6.922;2023-07-02T03:35:35;18.50;82.50
53254;DHT22;39148;53.332;6.922;2023-07-02T03:38:02;18.50;80.80
53254;DHT22;39148;53.332;6.922;2023-07-02T03:40:27;18.50;82.60
53254;DHT22;39148;53.332;6.922;2023-07-02T03:42:53;18.40;80.80
53254;DHT22;39148;53.332;6.922;2023-07-02T03:45:19;18.60;80.80
53254;DHT22;39148;53.332;6.922;2023-07-02T03:47:44;18.50;80.80
53254;DHT22;39148;53.332;6.922;2023-07-02T03:50:10;18.40;82.60
53254;DHT22;39148;53.332;6.922;2023-07-02T03:52:36;18.40;82.50
53254;DHT22;39148;53.332;6.922;2023-07-02T03:55:01;18.50;80.80
53254;DHT22;39148;53.332;6.922;2023-07-02T03:57:27;18.40;82.80
53254;DHT22;39148;53.332;6.922;2023-07-02T03:59:53;18.50;80.60
53254;DHT22;39148;53.332;6.922;2023-07-02T04:02:19;18.40;80.80
53254;DHT22;39148;53.332;6.922;2023-07-02T04:04:44;18.30;82.60
53254;DHT22;39148;53.332;6.922;2023-07-02T04:07:11;18.30;80.40
53254;DHT22;39148;53.332;6.922;2023-07-02T04:09:37;18.50;82.90
53254;DHT22;39148;53.332;6.922;2023-07-02T04:12:03;18.50;82.80
53254;DHT22;39148;53.332;6.922;2023-07-02T04:14:29;18.40;82.70
53254;DHT22;39148;53.332;6.922;2023-07-02T04:16:55;18.40;82.70
53254;DHT22;39148;53.332;6.922;2023-07-02T04:19:20;18.40;82.60
53254;DHT22;39148;53.332;6.922;2023-07-02T04:21:46;18.30;82.70
53254;DHT22;39148;53.332;6.922;2023-07-02T04:24:12;18.30;82.70
53254;DHT22;39148;53.332;6.922;2023-07-02T04:26:38;18.40;83.10
53254;DHT22;39148;53.332;6.922;2023-07-02T04:29:10;18.30;83.00
53254;DHT22;39148;53.332;6.922;2023-07-02T04:31:36;18.40;82.90
53254;DHT22;39148;53.332;6.922;2023-07-02T04:34:04;18.20;80.60
53254;DHT22;39148;53.332;6.922;2023-07-02T04:36:31;18.30;82.80
53254;DHT22;39148;53.332;6.922;2023-07-02T04:38:57;18.30;83.00
53254;DHT22;39148;53.332;6.922;2023-07-02T04:41:23;18.10;82.70
53254;DHT22;39148;53.332;6.922;2023-07-02T04:43:48;18.20;81.00
53254;DHT22;39148;53.332;6.922;2023-07-02T04:46:14;18.10;82.70
53254;DHT22;39148;53.332;6.922;2023-07-02T04:48:40;18.20;81.10
53254;DHT22;39148;53.332;6.922;2023-07-02T04:51:05;18.00;82.90
53254;DHT22;39148;53.332;6.922;2023-07-02T04:53:31;18.30;82.80
53254;DHT22;39148;53.332;6.922;2023-07-02T04:55:57;18.30;83.10
53254;DHT22;39148;53.332;6.922;2023-07-02T04:58:23;18.10;81.10
53254;DHT22;39148;53.332;6.922;2023-07-02T05:00:49;18.30;83.00
53254;DHT22;39148;53.332;6.922;2023-07-02T05:03:14;18.30;82.90
53254;DHT22;39148;53.332;6.922;2023-07-02T05:05:40;18.20;82.90
53254;DHT22;39148;53.332;6.922;2023-07-02T05:08:06;18.20;83.10
53254;DHT22;39148;53.332;6.922;2023-07-02T05:10:32;18.10;82.80
53254;DHT22;39148;53.332;6.922;2023-07-02T05:12:58;18.20;82.90
53254;DHT22;39148;53.332;6.922;2023-07-02T05:15:24;17.20;80.60
53254;DHT22;39148;53.332;6.922;2023-07-02T05:17:49;18.30;83.20
53254;DHT22;39148;53.332;6.922;2023-07-02T05:20:15;18.10;82.90
53254;DHT22;39148;53.332;6.922;2023-07-02T05:22:41;18.10;82.80
53254;DHT22;39148;53.332;6.922;2023-07-02T05:25:07;18.30;82.90
53254;DHT22;39148;53.332;6.922;2023-07-02T05:27:33;18.20;82.90
53254;DHT22;39148;53.332;6.922;2023-07-02T05:29:59;18.20;82.90
53254;DHT22;39148;53.332;6.922;2023-07-02T05:32:24;18.00;82.70
53254;DHT22;39148;53.332;6.922;2023-07-02T05:34:50;18.10;82.90
53254;DHT22;39148;53.332;6.922;2023-07-02T05:37:16;18.30;82.90
53254;DHT22;39148;53.332;6.922;2023-07-02T05:39:42;18.20;82.80
53254;DHT22;39148;53.332;6.922;2023-07-02T05:42:08;18.20;83.00
53254;DHT22;39148;53.332;6.922;2023-07-02T05:44:33;18.10;82.70
53254;DHT22;39148;53.332;6.922;2023-07-02T05:46:59;18.10;81.00
53254;DHT22;39148;53.332;6.922;2023-07-02T05:49:25;18.10;82.70
53254;DHT22;39148;53.332;6.922;2023-07-02T05:51:52;18.20;81.10
53254;DHT22;39148;53.332;6.922;2023-07-02T05:54:17;18.20;82.80
53254;DHT22;39148;53.332;6.922;2023-07-02T05:56:43;18.20;82.90
53254;DHT22;39148;53.332;6.922;2023-07-02T05:59:09;18.10;82.70
53254;DHT22;39148;53.332;6.922;2023-07-02T06:01:34;18.10;82.70
53254;DHT22;39148;53.332;6.922;2023-07-02T06:06:26;18.20;82.80
53254;DHT22;39148;53.332;6.922;2023-07-02T06:08:52;18.10;82.70
53254;DHT22;39148;53.332;6.922;2023-07-02T06:11:18;18.40;83.00
53254;DHT22;39148;53.332;6.922;2023-07-02T06:13:44;18.30;82.70
53254;DHT22;39148;53.332;6.922;2023-07-02T06:16:09;18.10;80.90
53254;DHT22;39148;53.332;6.922;2023-07-02T06:18:35;18.30;81.00
53254;DHT22;39148;53.332;6.922;2023-07-02T06:21:01;18.30;82.70
53254;DHT22;39148;53.332;6.922;2023-07-02T06:23:27;18.40;82.80
53254;DHT22;39148;53.332;6.922;2023-07-02T06:25:53;18.30;81.00
53254;DHT22;39148;53.332;6.922;2023-07-02T06:28:27;18.50;80.90
53254;DHT22;39148;53.332;6.922;2023-07-02T06:30:53;18.20;82.50
53254;DHT22;39148;53.332;6.922;2023-07-02T06:33:19;18.30;82.40
53254;DHT22;39148;53.332;6.922;2023-07-02T06:35:44;18.30;82.70
53254;DHT22;39148;53.332;6.922;2023-07-02T06:38:10;18.30;82.40
53254;DHT22;39148;53.332;6.922;2023-07-02T06:40:36;18.30;82.60
53254;DHT22;39148;53.332;6.922;2023-07-02T06:43:01;18.40;80.70
53254;DHT22;39148;53.332;6.922;2023-07-02T06:45:27;18.50;80.70
53254;DHT22;39148;53.332;6.922;2023-07-02T06:47:52;18.40;80.70
53254;DHT22;39148;53.332;6.922;2023-07-02T06:50:18;18.30;82.30
53254;DHT22;39148;53.332;6.922;2023-07-02T06:52:44;18.40;80.50
53254;DHT22;39148;53.332;6.922;2023-07-02T06:55:09;18.50;80.70
53254;DHT22;39148;53.332;6.922;2023-07-02T06:57:35;18.40;82.30
53254;DHT22;39148;53.332;6.922;2023-07-02T07:00:07;18.50;82.30
53254;DHT22;39148;53.332;6.922;2023-07-02T07:02:33;18.50;80.10
53254;DHT22;39148;53.332;6.922;2023-07-02T07:04:59;18.40;80.40
53254;DHT22;39148;53.332;6.922;2023-07-02T07:07:25;18.40;82.20
53254;DHT22;39148;53.332;6.922;2023-07-02T07:09:50;18.60;82.20
53254;DHT22;39148;53.332;6.922;2023-07-02T07:12:16;18.50;80.50
53254;DHT22;39148;53.332;6.922;2023-07-02T07:14:42;18.50;80.50
53254;DHT22;39148;53.332;6.922;2023-07-02T07:17:09;18.50;82.60
53254;DHT22;39148;53.332;6.922;2023-07-02T07:19:34;18.70;82.10
53254;DHT22;39148;53.332;6.922;2023-07-02T07:22:00;18.60;80.30
53254;DHT22;39148;53.332;6.922;2023-07-02T07:24:26;18.60;80.30
53254;DHT22;39148;53.332;6.922;2023-07-02T07:26:51;18.60;80.30
53254;DHT22;39148;53.332;6.922;2023-07-02T07:29:17;18.60;82.00
53254;DHT22;39148;53.332;6.922;2023-07-02T07:31:43;18.60;80.30
53254;DHT22;39148;53.332;6.922;2023-07-02T07:34:09;18.60;80.20
53254;DHT22;39148;53.332;6.922;2023-07-02T07:36:35;18.70;80.20
53254;DHT22;39148;53.332;6.922;2023-07-02T07:39:02;18.60;80.10
53254;DHT22;39148;53.332;6.922;2023-07-02T07:41:27;18.70;80.10
53254;DHT22;39148;53.332;6.922;2023-07-02T07:43:53;18.70;80.10
53254;DHT22;39148;53.332;6.922;2023-07-02T07:46:19;18.80;80.20
53254;DHT22;39148;53.332;6.922;2023-07-02T07:48:45;18.70;80.20
53254;DHT22;39148;53.332;6.922;2023-07-02T07:51:10;18.70;81.80
53254;DHT22;39148;53.332;6.922;2023-07-02T07:53:39;18.70;80.10
53254;DHT22;39148;53.332;6.922;2023-07-02T07:56:05;18.80;80.70
53254;DHT22;39148;53.332;6.922;2023-07-02T07:58:31;18.80;79.90
53254;DHT22;39148;53.332;6.922;2023-07-02T08:00:59;18.80;81.70
53254;DHT22;39148;53.332;6.922;2023-07-02T08:03:25;18.90;79.90
53254;DHT22;39148;53.332;6.922;2023-07-02T08:05:51;18.80;79.90
53254;DHT22;39148;53.332;6.922;2023-07-02T08:08:16;18.90;80.00
53254;DHT22;39148;53.332;6.922;2023-07-02T08:10:42;18.90;79.70
53254;DHT22;39148;53.332;6.922;2023-07-02T08:13:08;19.00;81.60
53254;DHT22;39148;53.332;6.922;2023-07-02T08:15:34;18.90;79.80
53254;DHT22;39148;53.332;6.922;2023-07-02T08:18:00;18.90;79.70
53254;DHT22;39148;53.332;6.922;2023-07-02T08:20:26;18.90;79.70
53254;DHT22;39148;53.332;6.922;2023-07-02T08:22:52;18.90;79.60
53254;DHT22;39148;53.332;6.922;2023-07-02T08:25:18;19.00;79.70
53254;DHT22;39148;53.332;6.922;2023-07-02T08:27:44;19.00;79.60
53254;DHT22;39148;53.332;6.922;2023-07-02T08:30:10;19.00;79.60
53254;DHT22;39148;53.332;6.922;2023-07-02T08:32:36;19.10;81.50
53254;DHT22;39148;53.332;6.922;2023-07-02T08:35:01;19.00;79.60
53254;DHT22;39148;53.332;6.922;2023-07-02T08:37:27;19.10;81.30
53254;DHT22;39148;53.332;6.922;2023-07-02T08:39:53;19.20;81.20
53254;DHT22;39148;53.332;6.922;2023-07-02T08:42:19;19.00;79.30
53254;DHT22;39148;53.332;6.922;2023-07-02T08:44:53;19.10;81.00
53254;DHT22;39148;53.332;6.922;2023-07-02T08:47:19;19.10;81.10
53254;DHT22;39148;53.332;6.922;2023-07-02T08:49:45;19.10;79.20
53254;DHT22;39148;53.332;6.922;2023-07-02T08:52:13;19.20;79.10
53254;DHT22;39148;53.332;6.922;2023-07-02T08:54:38;19.10;79.00
53254;DHT22;39148;53.332;6.922;2023-07-02T08:57:04;19.20;81.00
53254;DHT22;39148;53.332;6.922;2023-07-02T08:59:31;19.20;78.70
53254;DHT22;39148;53.332;6.922;2023-07-02T09:01:57;19.20;78.80
53254;DHT22;39148;53.332;6.922;2023-07-02T09:04:24;19.20;78.80
53254;DHT22;39148;53.332;6.922;2023-07-02T09:07:07;19.20;79.00
53254;DHT22;39148;53.332;6.922;2023-07-02T09:09:43;19.30;80.50
53254;DHT22;39148;53.332;6.922;2023-07-02T09:12:21;19.30;78.70
53254;DHT22;39148;53.332;6.922;2023-07-02T09:14:57;19.30;78.60
53254;DHT22;39148;53.332;6.922;2023-07-02T09:17:34;19.30;78.80
53254;DHT22;39148;53.332;6.922;2023-07-02T09:20:02;19.50;79.10
53254;DHT22;39148;53.332;6.922;2023-07-02T09:22:30;19.40;78.90
53254;DHT22;39148;53.332;6.922;2023-07-02T09:24:58;19.40;78.60
53254;DHT22;39148;53.332;6.922;2023-07-02T09:27:53;19.30;78.70
53254;DHT22;39148;53.332;6.922;2023-07-02T09:30:19;19.30;78.60
53254;DHT22;39148;53.332;6.922;2023-07-02T09:32:45;19.40;80.30
53254;DHT22;39148;53.332;6.922;2023-07-02T09:35:11;19.40;78.40
53254;DHT22;39148;53.332;6.922;2023-07-02T09:37:38;19.40;78.40
53254;DHT22;39148;53.332;6.922;2023-07-02T09:40:05;19.50;78.60
53254;DHT22;39148;53.332;6.922;2023-07-02T09:42:34;19.40;78.00
53254;DHT22;39148;53.332;6.922;2023-07-02T09:45:01;19.70;79.20
53254;DHT22;39148;53.332;6.922;2023-07-02T09:47:29;19.50;78.50
53254;DHT22;39148;53.332;6.922;2023-07-02T09:50:04;19.40;78.40
53254;DHT22;39148;53.332;6.922;2023-07-02T09:52:32;19.50;78.30
53254;DHT22;39148;53.332;6.922;2023-07-02T09:54:58;19.60;78.30
53254;DHT22;39148;53.332;6.922;2023-07-02T09:57:24;19.40;78.10
53254;DHT22;39148;53.332;6.922;2023-07-02T09:59:50;19.50;78.00
53254;DHT22;39148;53.332;6.922;2023-07-02T10:02:16;19.60;77.80
53254;DHT22;39148;53.332;6.922;2023-07-02T10:04:46;19.50;77.90
53254;DHT22;39148;53.332;6.922;2023-07-02T10:07:13;19.60;78.10
53254;DHT22;39148;53.332;6.922;2023-07-02T10:09:50;19.60;78.00
53254;DHT22;39148;53.332;6.922;2023-07-02T10:14:49;19.60;76.30
53254;DHT22;39148;53.332;6.922;2023-07-02T10:17:31;19.70;77.60
53254;DHT22;39148;53.332;6.922;2023-07-02T10:20:07;19.60;77.90
53254;DHT22;39148;53.332;6.922;2023-07-02T10:22:47;19.60;77.50
53254;DHT22;39148;53.332;6.922;2023-07-02T10:25:34;19.70;77.90
53254;DHT22;39148;53.332;6.922;2023-07-02T10:28:01;19.70;77.90
53254;DHT22;39148;53.332;6.922;2023-07-02T10:30:38;19.70;77.60
53254;DHT22;39148;53.332;6.922;2023-07-02T10:33:11;19.70;77.40
53254;DHT22;39148;53.332;6.922;2023-07-02T10:35:37;19.70;76.10
53254;DHT22;39148;53.332;6.922;2023-07-02T10:38:04;19.70;77.20
53254;DHT22;39148;53.332;6.922;2023-07-02T10:40:32;19.80;77.40
53254;DHT22;39148;53.332;6.922;2023-07-02T10:42:59;19.80;77.40
53254;DHT22;39148;53.332;6.922;2023-07-02T10:45:32;19.90;77.20
53254;DHT22;39148;53.332;6.922;2023-07-02T10:47:58;19.90;77.30
53254;DHT22;39148;53.332;6.922;2023-07-02T10:50:24;19.90;77.00
53254;DHT22;39148;53.332;6.922;2023-07-02T10:52:52;20.00;77.00
53254;DHT22;39148;53.332;6.922;2023-07-02T10:57:44;19.90;76.90
53254;DHT22;39148;53.332;6.922;2023-07-02T11:00:10;19.90;76.80
53254;DHT22;39148;53.332;6.922;2023-07-02T11:02:40;20.00;76.30
53254;DHT22;39148;53.332;6.922;2023-07-02T11:05:07;20.20;77.00
53254;DHT22;39148;53.332;6.922;2023-07-02T11:07:38;20.00;76.70
53254;DHT22;39148;53.332;6.922;2023-07-02T11:10:05;20.00;76.60
53254;DHT22;39148;53.332;6.922;2023-07-02T11:12:32;20.00;76.20
53254;DHT22;39148;53.332;6.922;2023-07-02T11:15:08;20.10;76.30
53254;DHT22;39148;53.332;6.922;2023-07-02T11:17:34;20.00;76.70
53254;DHT22;39148;53.332;6.922;2023-07-02T11:19:59;20.10;76.30
53254;DHT22;39148;53.332;6.922;2023-07-02T11:22:35;20.10;76.20
53254;DHT22;39148;53.332;6.922;2023-07-02T11:25:18;20.10;76.10
53254;DHT22;39148;53.332;6.922;2023-07-02T11:27:45;20.20;75.10
53254;DHT22;39148;53.332;6.922;2023-07-02T11:30:12;20.20;75.80
53254;DHT22;39148;53.332;6.922;2023-07-02T11:32:51;20.10;75.60
53254;DHT22;39148;53.332;6.922;2023-07-02T11:35:17;20.20;76.10
53254;DHT22;39148;53.332;6.922;2023-07-02T11:37:44;20.20;75.80
53254;DHT22;39148;53.332;6.922;2023-07-02T11:40:10;20.20;75.70
53254;DHT22;39148;53.332;6.922;2023-07-02T11:42:36;20.20;75.30
53254;DHT22;39148;53.332;6.922;2023-07-02T11:45:02;20.30;75.50
53254;DHT22;39148;53.332;6.922;2023-07-02T11:47:28;20.30;75.10
53254;DHT22;39148;53.332;6.922;2023-07-02T11:49:53;20.30;75.30
53254;DHT22;39148;53.332;6.922;2023-07-02T11:52:24;20.30;74.40
53254;DHT22;39148;53.332;6.922;2023-07-02T11:54:50;20.40;75.70
53254;DHT22;39148;53.332;6.922;2023-07-02T11:57:16;20.30;75.40
53254;DHT22;39148;53.332;6.922;2023-07-02T11:59:42;20.50;75.30
53254;DHT22;39148;53.332;6.922;2023-07-02T12:02:08;20.40;75.20
53254;DHT22;39148;53.332;6.922;2023-07-02T12:04:33;20.40;75.30
53254;DHT22;39148;53.332;6.922;2023-07-02T12:07:00;20.50;75.20
53254;DHT22;39148;53.332;6.922;2023-07-02T12:09:27;20.40;75.20
53254;DHT22;39148;53.332;6.922;2023-07-02T12:11:53;20.40;75.10
53254;DHT22;39148;53.332;6.922;2023-07-02T12:14:18;20.50;75.00
53254;DHT22;39148;53.332;6.922;2023-07-02T12:16:44;20.60;75.00
53254;DHT22;39148;53.332;6.922;2023-07-02T12:19:10;20.50;74.90
53254;DHT22;39148;53.332;6.922;2023-07-02T12:21:36;20.50;74.80
53254;DHT22;39148;53.332;6.922;2023-07-02T12:24:02;20.60;74.80
53254;DHT22;39148;53.332;6.922;2023-07-02T12:26:28;20.50;74.70
53254;DHT22;39148;53.332;6.922;2023-07-02T12:28:54;20.60;74.80
53254;DHT22;39148;53.332;6.922;2023-07-02T12:31:20;20.60;74.80
53254;DHT22;39148;53.332;6.922;2023-07-02T12:33:46;20.60;74.60
53254;DHT22;39148;53.332;6.922;2023-07-02T12:36:11;20.70;74.70
53254;DHT22;39148;53.332;6.922;2023-07-02T12:38:39;20.60;74.70
53254;DHT22;39148;53.332;6.922;2023-07-02T12:41:05;20.70;74.60
53254;DHT22;39148;53.332;6.922;2023-07-02T12:43:30;20.70;74.60
53254;DHT22;39148;53.332;6.922;2023-07-02T12:45:56;20.80;74.60
53254;DHT22;39148;53.332;6.922;2023-07-02T12:48:21;20.70;74.60
53254;DHT22;39148;53.332;6.922;2023-07-02T12:50:58;20.80;74.50
53254;DHT22;39148;53.332;6.922;2023-07-02T12:53:25;20.80;73.50
53254;DHT22;39148;53.332;6.922;2023-07-02T12:55:51;20.80;74.50
53254;DHT22;39148;53.332;6.922;2023-07-02T12:58:16;20.80;74.30
53254;DHT22;39148;53.332;6.922;2023-07-02T13:00:42;20.80;74.30
53254;DHT22;39148;53.332;6.922;2023-07-02T13:03:11;20.90;74.50
53254;DHT22;39148;53.332;6.922;2023-07-02T13:05:37;20.90;74.60
53254;DHT22;39148;53.332;6.922;2023-07-02T13:08:02;20.80;74.50
53254;DHT22;39148;53.332;6.922;2023-07-02T13:10:33;21.00;74.10
53254;DHT22;39148;53.332;6.922;2023-07-02T13:12:59;20.90;74.40
53254;DHT22;39148;53.332;6.922;2023-07-02T13:15:25;20.80;74.20
53254;DHT22;39148;53.332;6.922;2023-07-02T13:17:51;20.90;74.00
53254;DHT22;39148;53.332;6.922;2023-07-02T13:20:16;21.00;74.10
53254;DHT22;39148;53.332;6.922;2023-07-02T13:22:42;21.00;73.80
53254;DHT22;39148;53.332;6.922;2023-07-02T13:25:08;20.90;73.50
53254;DHT22;39148;53.332;6.922;2023-07-02T13:27:34;21.00;73.40
53254;DHT22;39148;53.332;6.922;2023-07-02T13:30:00;20.90;73.60
53254;DHT22;39148;53.332;6.922;2023-07-02T13:32:26;21.00;73.70
53254;DHT22;39148;53.332;6.922;2023-07-02T13:34:51;21.00;73.50
53254;DHT22;39148;53.332;6.922;2023-07-02T13:37:17;21.10;73.50
53254;DHT22;39148;53.332;6.922;2023-07-02T13:39:47;21.00;73.40
53254;DHT22;39148;53.332;6.922;2023-07-02T13:42:14;21.10;73.70
53254;DHT22;39148;53.332;6.922;2023-07-02T13:44:40;21.10;73.50
53254;DHT22;39148;53.332;6.922;2023-07-02T13:47:06;21.00;73.40
53254;DHT22;39148;53.332;6.922;2023-07-02T13:49:32;21.10;73.40
53254;DHT22;39148;53.332;6.922;2023-07-02T13:51:58;21.10;73.50
53254;DHT22;39148;53.332;6.922;2023-07-02T13:54:24;21.10;73.20
53254;DHT22;39148;53.332;6.922;2023-07-02T13:56:50;21.10;73.20
53254;DHT22;39148;53.332;6.922;2023-07-02T13:59:16;21.10;73.00
53254;DHT22;39148;53.332;6.922;2023-07-02T14:01:43;21.20;73.30
53254;DHT22;39148;53.332;6.922;2023-07-02T14:04:09;21.10;73.20
53254;DHT22;39148;53.332;6.922;2023-07-02T14:06:34;21.10;73.00
53254;DHT22;39148;53.332;6.922;2023-07-02T14:09:00;21.10;73.00
53254;DHT22;39148;53.332;6.922;2023-07-02T14:11:26;21.10;73.10
53254;DHT22;39148;53.332;6.922;2023-07-02T14:13:53;21.10;73.10
53254;DHT22;39148;53.332;6.922;2023-07-02T14:16:19;21.10;73.20
53254;DHT22;39148;53.332;6.922;2023-07-02T14:18:45;21.00;73.00
53254;DHT22;39148;53.332;6.922;2023-07-02T14:21:11;21.20;73.10
53254;DHT22;39148;53.332;6.922;2023-07-02T14:23:37;21.20;73.10
53254;DHT22;39148;53.332;6.922;2023-07-02T14:26:02;21.20;73.10
53254;DHT22;39148;53.332;6.922;2023-07-02T14:28:28;21.20;73.20
53254;DHT22;39148;53.332;6.922;2023-07-02T14:31:02;21.20;73.20
53254;DHT22;39148;53.332;6.922;2023-07-02T14:33:29;21.10;73.40
53254;DHT22;39148;53.332;6.922;2023-07-02T14:35:56;21.20;73.30
53254;DHT22;39148;53.332;6.922;2023-07-02T14:38:22;21.20;73.20
53254;DHT22;39148;53.332;6.922;2023-07-02T14:40:49;21.20;73.30
53254;DHT22;39148;53.332;6.922;2023-07-02T14:43:15;21.30;73.40
53254;DHT22;39148;53.332;6.922;2023-07-02T14:45:46;21.20;73.10
53254;DHT22;39148;53.332;6.922;2023-07-02T14:48:13;21.20;73.40
53254;DHT22;39148;53.332;6.922;2023-07-02T14:50:48;21.20;73.30
53254;DHT22;39148;53.332;6.922;2023-07-02T14:53:14;21.20;73.50
53254;DHT22;39148;53.332;6.922;2023-07-02T14:55:40;21.20;73.20
53254;DHT22;39148;53.332;6.922;2023-07-02T14:58:06;21.30;73.10
53254;DHT22;39148;53.332;6.922;2023-07-02T15:00:32;21.10;73.00
53254;DHT22;39148;53.332;6.922;2023-07-02T15:02:59;21.20;73.10
53254;DHT22;39148;53.332;6.922;2023-07-02T15:05:24;21.20;73.10
53254;DHT22;39148;53.332;6.922;2023-07-02T15:07:50;21.20;73.00
53254;DHT22;39148;53.332;6.922;2023-07-02T15:10:17;21.10;72.90
53254;DHT22;39148;53.332;6.922;2023-07-02T15:12:43;21.20;72.90
53254;DHT22;39148;53.332;6.922;2023-07-02T15:15:09;21.30;72.90
53254;DHT22;39148;53.332;6.922;2023-07-02T15:17:35;21.20;72.90
53254;DHT22;39148;53.332;6.922;2023-07-02T15:20:01;21.20;73.00
53254;DHT22;39148;53.332;6.922;2023-07-02T15:22:29;21.10;73.00
53254;DHT22;39148;53.332;6.922;2023-07-02T15:24:54;21.10;73.00
53254;DHT22;39148;53.332;6.922;2023-07-02T15:27:20;21.20;73.10
53254;DHT22;39148;53.332;6.922;2023-07-02T15:29:46;21.10;72.90
53254;DHT22;39148;53.332;6.922;2023-07-02T15:32:11;21.10;73.00
53254;DHT22;39148;53.332;6.922;2023-07-02T15:34:37;21.20;73.10
53254;DHT22;39148;53.332;6.922;2023-07-02T15:37:03;21.20;73.10
53254;DHT22;39148;53.332;6.922;2023-07-02T15:39:28;21.20;72.90